Time;durP1;ratioP1;P1;durP2;ratioP2;P2;SDS_P1;SDS_P2;PMS_P1;PMS_P2;Temp;Humidity;BMP_temperature;BMP_pressure;BME280_temperature;BME280_humidity;BME280_pressure;Samples;Min_cycle;Max_cycle;Signal;HPM_P1;HPM_P2
2021/07/04 00:00:30;;;;;;;;;;;17.40;99.90;;;16.33;100.00;95574.88;10430461;28;2062;-82
2021/07/04 00:05:33;;;;;;;;;;;17.30;99.90;;;16.27;100.00;95576.16;10417926;28;2034;-83
2021/07/04 00:10:35;;;;;;;;;;;17.20;99.90;;;16.19;100.00;95581.22;10433494;28;2202;-82
2021/07/04 00:15:40;;;;;;;;;;;17.10;99.90;;;16.18;100.00;95581.56;10428491;28;2044;-83
2021/07/04 00:20:43;;;;;;;;;;;17.10;99.90;;;16.14;100.00;95578.66;10426903;28;2030;-81
2021/07/04 00:25:45;;;;;;;;;;;17.10;99.90;;;16.08;100.00;95571.78;10411145;28;2028;-82
2021/07/04 00:30:48;;;;;;;;;;;17.00;99.90;;;16.07;100.00;95567.47;10424018;28;2234;-83
2021/07/04 00:35:51;;;;;;;;;;;16.90;99.90;;;16.02;100.00;95570.31;10412837;28;2210;-82
2021/07/04 00:40:54;;;;;;;;;;;16.90;99.90;;;16.02;100.00;95566.78;10434386;28;2041;-81
2021/07/04 00:45:57;;;;;;;;;;;16.90;99.90;;;16.00;100.00;95569.81;10447631;28;2085;-82
2021/07/04 00:50:59;;;;;;;;;;;16.90;99.90;;;15.90;100.00;95564.66;10415191;28;2345;-83
2021/07/04 00:56:02;;;;;;;;;;;16.80;99.90;;;15.72;100.00;95566.53;10400514;28;2189;-80
2021/07/04 01:01:05;;;;;;;;;;;16.70;99.90;;;15.64;100.00;95559.91;10426225;28;2255;-83
2021/07/04 01:06:08;;;;;;;;;;;16.60;99.90;;;15.64;100.00;95553.72;10417122;28;2141;-80
2021/07/04 01:11:11;;;;;;;;;;;16.60;99.90;;;15.68;100.00;95544.66;10414620;28;2106;-81
2021/07/04 01:16:13;;;;;;;;;;;16.50;99.90;;;15.73;100.00;95548.34;10425230;28;2039;-81
2021/07/04 01:21:16;;;;;;;;;;;16.60;99.90;;;15.76;100.00;95539.59;10424889;28;2114;-81
2021/07/04 01:26:19;;;;;;;;;;;16.60;99.90;;;15.67;100.00;95537.63;10451954;28;1798;-81
2021/07/04 01:31:22;;;;;;;;;;;16.60;99.90;;;15.67;100.00;95534.94;10432685;28;1895;-83
2021/07/04 01:36:25;;;;;;;;;;;16.60;99.90;;;15.64;100.00;95532.81;10427326;28;2102;-80
2021/07/04 01:41:28;;;;;;;;;;;16.50;99.90;;;15.61;100.00;95527.22;10430486;28;2088;-83
2021/07/04 01:46:31;;;;;;;;;;;16.50;99.90;;;15.59;100.00;95534.88;10420589;28;2147;-83
2021/07/04 01:51:34;;;;;;;;;;;16.50;99.90;;;15.62;100.00;95532.34;10438142;28;2100;-81
2021/07/04 01:56:36;;;;;;;;;;;16.60;99.90;;;15.66;100.00;95530.63;10417297;28;1992;-83
2021/07/04 02:01:39;;;;;;;;;;;16.50;99.90;;;15.68;100.00;95527.59;10405032;28;2022;-82
2021/07/04 02:06:42;;;;;;;;;;;16.60;99.90;;;15.69;100.00;95523.78;10409252;28;2075;-82
2021/07/04 02:11:45;;;;;;;;;;;16.60;99.90;;;15.71;100.00;95520.75;10424137;28;2138;-82
2021/07/04 02:16:48;;;;;;;;;;;16.60;99.90;;;15.75;100.00;95510.88;10428488;28;2166;-84
2021/07/04 02:21:53;;;;;;;;;;;16.60;99.90;;;15.77;100.00;95509.44;10418229;28;2063;-83
2021/07/04 02:26:56;;;;;;;;;;;16.70;99.90;;;15.80;100.00;95503.41;10428095;28;2043;-80
2021/07/04 02:31:59;;;;;;;;;;;16.70;99.90;;;15.80;100.00;95500.72;10417055;28;2076;-82
2021/07/04 02:37:02;;;;;;;;;;;16.70;99.90;;;15.87;100.00;95508.38;10393817;28;1651;-83
2021/07/04 02:42:05;;;;;;;;;;;16.80;99.90;;;15.82;100.00;95505.81;10427555;28;2102;-81
2021/07/04 02:47:07;;;;;;;;;;;16.70;99.90;;;15.87;100.00;95506.47;10412587;28;1612;-81
2021/07/04 02:52:10;;;;;;;;;;;16.80;99.90;;;15.89;100.00;95503.44;10424870;28;2000;-86
2021/07/04 02:57:13;;;;;;;;;;;16.80;99.90;;;15.87;100.00;95508.38;10416747;28;1529;-82
2021/07/04 03:02:16;;;;;;;;;;;16.80;99.90;;;15.83;100.00;95507.41;10411368;28;2113;-82
2021/07/04 03:07:19;;;;;;;;;;;16.80;99.90;;;15.86;100.00;95501.38;10421497;28;2166;-82
2021/07/04 03:12:21;;;;;;;;;;;16.80;99.90;;;15.90;100.00;95507.75;10414273;28;2336;-82
2021/07/04 03:17:24;;;;;;;;;;;16.80;99.90;;;15.95;100.00;95508.41;10428835;28;2107;-82
2021/07/04 03:22:27;;;;;;;;;;;16.80;99.90;;;15.94;100.00;95503.31;10429282;28;2237;-82
2021/07/04 03:27:30;;;;;;;;;;;16.80;99.90;;;15.95;100.00;95504.91;10431418;28;2091;-83
2021/07/04 03:32:33;;;;;;;;;;;16.80;99.90;;;15.95;100.00;95502.19;10416369;28;2200;-82
2021/07/04 03:37:36;;;;;;;;;;;16.90;99.90;;;15.97;100.00;95497.28;10428850;28;2027;-81
2021/07/04 03:42:39;;;;;;;;;;;16.90;99.90;;;16.07;100.00;95488.84;10424978;28;2116;-81
2021/07/04 03:47:42;;;;;;;;;;;16.90;99.90;;;16.02;100.00;95488.97;10408170;28;2054;-82
2021/07/04 03:52:48;;;;;;;;;;;16.90;99.90;;;16.01;100.00;95487.38;10447300;28;2090;-83
2021/07/04 03:57:52;;;;;;;;;;;16.90;99.90;;;16.07;100.00;95482.63;10434258;28;1907;-82
2021/07/04 04:02:55;;;;;;;;;;;16.90;99.90;;;16.08;100.00;95481.50;10440368;28;1774;-81
2021/07/04 04:07:58;;;;;;;;;;;17.00;99.90;;;16.19;100.00;95478.19;10441067;28;2154;-82
2021/07/04 04:13:01;;;;;;;;;;;17.00;99.90;;;16.25;100.00;95470.69;10447532;28;2166;-83
2021/07/04 04:18:24;;;;;;;;;;;17.10;99.90;;;16.33;100.00;95479.94;10441767;28;1953;-79
2021/07/04 04:23:47;;;;;;;;;;;17.10;99.90;;;16.38;100.00;95479.81;10451808;28;1782;-83
2021/07/04 04:29:09;;;;;;;;;;;17.20;99.90;;;16.40;100.00;95481.06;10452677;28;1956;-81
2021/07/04 04:34:12;;;;;;;;;;;17.30;99.90;;;16.58;100.00;95481.09;10435580;28;2091;-80
2021/07/04 04:39:15;;;;;;;;;;;17.40;99.90;;;16.67;100.00;95481.91;10419315;28;1999;-80
2021/07/04 04:44:18;;;;;;;;;;;17.50;99.90;;;16.79;100.00;95484.00;10430201;28;1963;-82
2021/07/04 04:49:20;;;;;;;;;;;17.60;99.90;;;16.73;100.00;95481.47;10450763;28;1902;-80
2021/07/04 04:54:23;;;;;;;;;;;17.60;99.90;;;16.81;100.00;95476.34;10452847;28;1936;-84
2021/07/04 04:59:26;;;;;;;;;;;17.70;99.90;;;16.96;100.00;95479.38;10450504;28;1190;-84
2021/07/04 05:04:29;;;;;;;;;;;17.70;99.90;;;17.18;99.48;95481.09;10454695;28;1678;-83
2021/07/04 05:09:32;;;;;;;;;;;17.80;99.90;;;17.43;96.54;95476.72;10436541;28;2160;-81
2021/07/04 05:14:35;;;;;;;;;;;18.00;99.90;;;17.48;96.96;95483.88;10475604;28;2094;-83
2021/07/04 05:19:38;;;;;;;;;;;18.20;99.90;;;17.61;94.82;95480.16;10447910;28;1375;-82
2021/07/04 05:24:40;;;;;;;;;;;18.30;99.90;;;17.61;94.60;95472.00;10461566;28;1646;-83
2021/07/04 05:29:43;;;;;;;;;;;18.40;99.90;;;17.58;96.59;95464.53;10448683;28;2224;-82
2021/07/04 05:34:49;;;;;;;;;;;18.40;99.90;;;17.75;95.38;95461.78;10442088;28;1200;-84
2021/07/04 05:39:59;;;;;;;;;;;18.50;99.90;;;17.87;93.56;95460.25;10418971;28;2117;-83
2021/07/04 05:45:02;;;;;;;;;;;18.60;99.90;;;17.85;93.95;95460.59;10410603;28;1923;-84
2021/07/04 05:50:05;;;;;;;;;;;18.70;99.90;;;18.00;93.89;95456.50;10427053;28;2106;-81
2021/07/04 05:55:07;;;;;;;;;;;18.70;99.90;;;18.08;93.73;95453.75;10426935;28;1962;-81
2021/07/04 06:00:10;;;;;;;;;;;18.80;99.90;;;18.41;90.03;95453.06;10421750;28;2071;-82
2021/07/04 06:05:16;;;;;;;;;;;19.00;99.90;;;18.63;87.85;95454.66;10433160;28;2023;-82
2021/07/04 06:10:19;;;;;;;;;;;19.20;99.90;;;18.68;86.82;95459.94;10418949;28;2138;-81
2021/07/04 06:15:22;;;;;;;;;;;19.40;99.90;;;18.67;87.35;95447.47;10428224;28;1990;-81
2021/07/04 06:20:25;;;;;;;;;;;19.40;99.90;;;18.55;87.12;95448.16;10442560;28;2234;-81
2021/07/04 06:25:27;;;;;;;;;;;19.40;99.90;;;18.47;87.83;95448.22;10452256;28;1781;-83
2021/07/04 06:30:31;;;;;;;;;;;19.20;99.90;;;18.79;86.67;95449.44;10444826;28;2157;-82
2021/07/04 06:35:34;;;;;;;;;;;19.40;99.90;;;18.85;82.32;95445.41;10450857;28;2059;-81
2021/07/04 06:40:37;;;;;;;;;;;19.50;99.90;;;18.83;83.79;95439.47;10449834;28;1287;-81
2021/07/04 06:45:40;;;;;;;;;;;19.50;99.90;;;19.05;83.58;95443.75;10443625;28;1762;-80
2021/07/04 06:50:43;;;;;;;;;;;19.60;99.90;;;19.42;81.57;95434.56;10447934;28;1887;-83
2021/07/04 06:55:45;;;;;;;;;;;19.90;99.90;;;19.69;81.06;95432.34;10455506;28;1845;-80
2021/07/04 07:00:48;;;;;;;;;;;20.10;99.90;;;19.81;81.20;95432.34;10450996;28;2043;-83
2021/07/04 07:05:51;;;;;;;;;;;20.30;99.90;;;19.78;78.56;95430.28;10455179;28;1810;-82
2021/07/04 07:10:54;;;;;;;;;;;20.40;99.90;;;19.75;79.27;95435.66;10444455;28;1891;-82
2021/07/04 07:15:56;;;;;;;;;;;20.50;99.90;;;19.95;79.20;95434.72;10436172;28;1968;-82
2021/07/04 07:20:59;;;;;;;;;;;20.50;99.90;;;19.28;82.19;95434.06;10454342;28;1256;-81
2021/07/04 07:26:02;;;;;;;;;;;20.30;99.90;;;19.43;84.73;95427.97;10448817;28;1940;-82
2021/07/04 07:31:05;;;;;;;;;;;20.10;99.90;;;19.67;77.88;95426.44;10440479;28;1945;-82
2021/07/04 07:36:08;;;;;;;;;;;20.20;99.90;;;19.94;77.01;95423.03;10437060;28;2220;-81
2021/07/04 07:41:11;;;;;;;;;;;20.50;99.90;;;20.79;74.38;95413.09;10428719;28;1443;-84
2021/07/04 07:46:14;;;;;;;;;;;20.90;99.90;;;21.76;70.44;95414.53;10456566;28;2080;-83
2021/07/04 07:51:17;;;;;;;;;;;21.80;99.90;;;22.65;63.24;95393.84;10443706;28;2119;-86
2021/07/04 07:56:20;;;;;;;;;;;22.60;99.90;;;21.99;66.24;95381.81;10430087;28;1328;-83
2021/07/04 08:01:23;;;;;;;;;;;22.80;99.90;;;22.57;62.23;95378.41;10417865;28;2257;-84
2021/07/04 08:06:26;;;;;;;;;;;23.00;99.90;;;22.99;61.68;95389.47;10433899;28;2108;-84
2021/07/04 08:11:29;;;;;;;;;;;23.30;99.90;;;22.01;62.70;95387.75;10449716;28;2189;-79
2021/07/04 08:16:32;;;;;;;;;;;23.30;99.90;;;21.72;64.69;95382.75;10444623;28;2098;-84
2021/07/04 08:21:35;;;;;;;;;;;22.50;99.90;;;21.48;63.85;95389.19;10437894;28;1973;-83
2021/07/04 08:26:38;;;;;;;;;;;22.40;99.90;;;21.37;64.12;95372.50;10440374;28;2080;-84
2021/07/04 08:31:41;;;;;;;;;;;22.10;99.90;;;21.78;65.17;95362.19;10429174;28;2328;-80
2021/07/04 08:36:44;;;;;;;;;;;22.30;99.90;;;21.92;64.82;95331.63;10423713;28;1933;-85
2021/07/04 08:41:47;;;;;;;;;;;22.40;99.90;;;21.67;63.25;95320.09;10438617;28;1937;-82
2021/07/04 08:46:51;;;;;;;;;;;22.70;99.90;;;22.26;61.22;95325.34;10427082;28;1291;-82
2021/07/04 08:51:54;;;;;;;;;;;22.70;99.90;;;22.58;59.19;95336.16;10438524;28;1991;-84
2021/07/04 08:56:57;;;;;;;;;;;23.10;99.90;;;23.51;55.09;95337.88;10439766;28;2036;-85
2021/07/04 09:02:00;;;;;;;;;;;23.70;99.90;;;23.02;54.90;95333.13;10450007;28;2071;-82
2021/07/04 09:07:03;;;;;;;;;;;24.10;99.90;;;23.63;55.35;95327.53;10455032;28;1918;-82
2021/07/04 09:12:06;;;;;;;;;;;24.00;99.90;;;25.01;49.93;95318.78;10442961;28;2031;-82
2021/07/04 09:17:09;;;;;;;;;;;25.00;99.90;;;24.66;51.84;95319.16;10420443;28;1875;-84
2021/07/04 09:22:12;;;;;;;;;;;25.20;99.90;;;23.88;53.42;95324.38;10435641;28;2177;-83
2021/07/04 09:27:15;;;;;;;;;;;25.00;99.90;;;24.15;52.94;95317.72;10418900;28;1952;-84
2021/07/04 09:32:19;;;;;;;;;;;24.80;99.90;;;24.27;51.22;95319.44;10414064;28;2013;-83
2021/07/04 09:37:22;;;;;;;;;;;24.80;99.90;;;25.54;48.40;95329.50;10412581;28;2206;-80
2021/07/04 09:42:25;;;;;;;;;;;25.50;99.90;;;25.84;46.89;95310.88;10420534;28;1861;-82
2021/07/04 09:47:27;;;;;;;;;;;26.30;99.90;;;24.96;47.87;95303.41;10406189;28;2065;-82
2021/07/04 09:52:30;;;;;;;;;;;26.70;99.90;;;24.35;50.45;95306.63;10427545;28;2183;-81
2021/07/04 09:57:33;;;;;;;;;;;25.80;99.90;;;23.46;50.88;95308.81;10422724;28;2017;-81
2021/07/04 10:02:36;;;;;;;;;;;24.90;99.90;;;23.85;51.64;95308.66;10425724;28;2163;-82
2021/07/04 10:07:39;;;;;;;;;;;24.60;99.90;;;24.87;49.55;95296.59;10444464;28;2071;-82
2021/07/04 10:12:42;;;;;;;;;;;25.00;99.90;;;24.24;48.67;95282.53;10426539;28;2145;-78
2021/07/04 10:17:44;;;;;;;;;;;25.30;99.90;;;24.26;47.95;95280.19;10432711;28;2122;-80
2021/07/04 10:22:47;;;;;;;;;;;25.30;99.90;;;25.79;45.66;95280.97;10407610;28;2082;-83
2021/07/04 10:27:50;;;;;;;;;;;25.80;99.90;;;26.12;44.88;95265.41;10406745;28;2089;-80
2021/07/04 10:32:53;;;;;;;;;;;26.40;99.90;;;24.85;47.99;95257.72;10418528;28;2108;-84
2021/07/04 10:37:55;;;;;;;;;;;26.10;99.90;;;23.96;50.33;95233.53;10426547;28;2031;-82
2021/07/04 10:42:58;;;;;;;;;;;25.10;99.90;;;24.18;50.11;95233.81;10411269;28;1988;-80
2021/07/04 10:48:01;;;;;;;;;;;25.00;99.90;;;24.11;48.96;95228.22;10432816;28;2087;-80
2021/07/04 10:53:04;;;;;;;;;;;25.10;99.90;;;23.85;50.20;95226.31;10427699;28;2116;-81
2021/07/04 10:58:06;;;;;;;;;;;25.00;99.90;;;25.08;46.71;95233.63;10414691;28;2188;-83
2021/07/04 11:03:11;;;;;;;;;;;25.70;99.90;;;26.04;44.73;95211.47;10406520;28;2193;-81
2021/07/04 11:08:14;;;;;;;;;;;26.60;99.90;;;25.91;44.53;95216.53;10417163;28;2087;-83
2021/07/04 11:13:17;;;;;;;;;;;26.70;99.90;;;25.75;45.22;95211.31;10439949;28;2237;-83
2021/07/04 11:18:20;;;;;;;;;;;26.40;99.90;;;25.55;45.53;95215.50;10435540;28;2066;-81
2021/07/04 11:23:24;;;;;;;;;;;26.20;99.90;;;24.94;46.63;95205.94;10426146;28;2378;-82
2021/07/04 11:28:27;;;;;;;;;;;25.90;99.90;;;24.81;46.30;95205.44;10419700;28;2139;-82
2021/07/04 11:33:30;;;;;;;;;;;25.70;99.90;;;25.55;45.57;95190.72;10419167;28;2314;-80
2021/07/04 11:38:32;;;;;;;;;;;25.90;99.90;;;24.99;46.13;95183.63;10413566;28;2132;-81
2021/07/04 11:43:35;;;;;;;;;;;26.00;99.90;;;25.88;43.38;95174.00;10421409;28;2221;-84
2021/07/04 11:48:38;;;;;;;;;;;26.10;99.90;;;26.80;42.50;95172.75;10421021;28;2052;-83
2021/07/04 11:53:41;;;;;;;;;;;26.70;99.90;;;27.20;41.72;95173.56;10396884;28;2034;-81
2021/07/04 11:58:43;;;;;;;;;;;27.40;99.90;;;25.72;45.40;95173.53;10413519;28;2135;-83
2021/07/04 12:03:46;;;;;;;;;;;27.00;99.90;;;25.06;47.24;95169.94;10412787;28;2309;-83
2021/07/04 12:08:49;;;;;;;;;;;26.30;99.90;;;24.10;50.52;95166.22;10410502;28;2353;-80
2021/07/04 12:13:52;;;;;;;;;;;25.60;99.90;;;25.02;48.66;95160.88;10429318;28;2286;-83
2021/07/04 12:18:55;;;;;;;;;;;25.60;99.90;;;24.76;49.04;95159.09;10413779;28;2088;-82
2021/07/04 12:23:58;;;;;;;;;;;25.90;99.90;;;25.65;46.74;95145.97;10407451;28;2115;-82
2021/07/04 12:29:00;;;;;;;;;;;26.10;99.90;;;24.92;48.76;95137.59;10425884;28;2031;-80
2021/07/04 12:34:03;;;;;;;;;;;26.00;99.90;;;25.59;47.59;95131.00;10417882;28;2133;-82
2021/07/04 12:39:06;;;;;;;;;;;26.10;99.90;;;25.87;44.75;95128.41;10394158;28;2059;-83
2021/07/04 12:44:09;;;;;;;;;;;26.40;99.90;;;26.48;44.91;95114.03;10415506;28;2350;-81
2021/07/04 12:49:12;;;;;;;;;;;26.80;99.90;;;25.98;46.48;95103.66;10438867;28;2027;-82
2021/07/04 12:54:15;;;;;;;;;;;26.80;99.90;;;25.54;46.18;95092.84;10422913;28;2162;-81
2021/07/04 12:59:17;;;;;;;;;;;26.60;99.90;;;25.17;47.65;95080.06;10451178;28;2169;-83
2021/07/04 13:04:20;;;;;;;;;;;26.30;99.90;;;25.02;48.76;95072.88;10434345;28;2102;-82
2021/07/04 13:09:23;;;;;;;;;;;25.90;99.90;;;25.50;47.62;95073.56;10432377;28;2089;-83
2021/07/04 13:14:26;;;;;;;;;;;26.10;99.90;;;24.70;48.68;95062.47;10425814;28;1910;-83
2021/07/04 13:19:29;;;;;;;;;;;26.00;99.90;;;25.20;48.52;95060.06;10410798;28;2348;-84
2021/07/04 13:24:32;;;;;;;;;;;25.70;99.90;;;24.90;49.24;95064.94;10441388;28;2086;-83
2021/07/04 13:29:35;;;;;;;;;;;26.00;99.90;;;25.99;46.56;95065.88;10417596;28;2129;-84
2021/07/04 13:34:38;;;;;;;;;;;26.20;99.90;;;25.94;44.59;95064.28;10425488;28;2079;-83
2021/07/04 13:39:44;;;;;;;;;;;26.50;99.90;;;25.50;46.93;95067.25;10427807;28;2346;-83
2021/07/04 13:44:47;;;;;;;;;;;26.30;99.90;;;25.66;47.44;95067.72;10437564;28;2322;-82
2021/07/04 13:49:49;;;;;;;;;;;26.30;99.90;;;25.25;47.55;95067.13;10432412;28;2119;-84
2021/07/04 13:54:54;;;;;;;;;;;26.20;99.90;;;24.64;50.20;95072.22;10440383;28;2067;-82
2021/07/04 13:59:57;;;;;;;;;;;25.90;99.90;;;24.44;50.05;95054.41;10435110;28;2149;-82
2021/07/04 14:05:00;;;;;;;;;;;25.50;99.90;;;24.70;49.85;95051.47;10435462;28;1960;-82
2021/07/04 14:10:03;;;;;;;;;;;25.30;99.90;;;24.57;49.27;95047.44;10421785;28;2079;-80
2021/07/04 14:15:06;;;;;;;;;;;25.50;99.90;;;24.51;50.25;95043.47;10417738;28;2035;-83
2021/07/04 14:20:09;;;;;;;;;;;25.40;99.90;;;24.57;50.43;95041.16;10433975;28;2112;-81
2021/07/04 14:25:12;;;;;;;;;;;25.30;99.90;;;24.36;51.21;95030.78;10425111;28;2087;-82
2021/07/04 14:30:15;;;;;;;;;;;25.30;99.90;;;24.46;51.98;95025.38;10430517;28;2056;-81
2021/07/04 14:35:20;;;;;;;;;;;25.20;99.90;;;24.25;50.77;95025.97;10426721;28;2136;-82
2021/07/04 14:40:23;;;;;;;;;;;25.10;99.90;;;24.07;51.71;95036.00;10443976;28;2021;-83
2021/07/04 14:45:26;;;;;;;;;;;25.00;99.90;;;23.55;53.87;95037.78;10441282;28;2082;-83
2021/07/04 14:50:28;;;;;;;;;;;24.60;99.90;;;23.37;54.61;95043.03;10431972;28;2001;-84
2021/07/04 14:55:36;;;;;;;;;;;24.40;99.90;;;23.30;53.72;95048.44;10432275;28;2027;-82
2021/07/04 15:00:39;;;;;;;;;;;24.30;99.90;;;23.68;54.34;95041.88;10421783;28;2004;-81
2021/07/04 15:05:42;;;;;;;;;;;24.30;99.90;;;23.61;54.69;95047.28;10433421;28;2052;-82
2021/07/04 15:10:45;;;;;;;;;;;24.40;99.90;;;23.45;56.88;95046.66;10426586;28;1755;-82
2021/07/04 15:15:48;;;;;;;;;;;24.40;99.90;;;22.58;60.71;95043.06;10449201;28;2039;-82
2021/07/04 15:20:51;;;;;;;;;;;23.90;99.90;;;22.36;63.18;95044.69;10417367;28;2022;-84
2021/07/04 15:25:54;;;;;;;;;;;23.40;99.90;;;22.22;65.48;95048.00;10421222;28;1924;-82
2021/07/04 15:30:56;;;;;;;;;;;23.20;99.90;;;21.99;66.56;95039.75;10416650;28;2030;-83
2021/07/04 15:35:59;;;;;;;;;;;23.00;99.90;;;21.89;69.63;95043.09;10420731;28;1958;-83
2021/07/04 15:41:02;;;;;;;;;;;22.90;99.90;;;21.40;75.91;95054.66;10411695;28;2028;-81
2021/07/04 15:46:05;;;;;;;;;;;22.70;99.90;;;21.19;80.45;95056.94;10410467;28;1882;-83
2021/07/04 15:51:08;;;;;;;;;;;22.30;99.90;;;21.02;80.06;95055.41;10417452;28;1802;-82
2021/07/04 15:56:10;;;;;;;;;;;22.20;99.90;;;20.64;83.25;95062.34;10426192;28;2070;-83
2021/07/04 16:01:14;;;;;;;;;;;21.90;99.90;;;20.49;84.52;95061.25;10419135;28;2189;-82
2021/07/04 16:06:17;;;;;;;;;;;21.70;99.90;;;20.23;81.62;95077.31;10417016;28;2043;-82
2021/07/04 16:11:20;;;;;;;;;;;21.50;99.90;;;19.82;78.23;95093.03;10410712;28;2276;-84
2021/07/04 16:16:23;;;;;;;;;;;21.10;99.90;;;19.48;78.25;95104.53;10415747;28;2203;-81
2021/07/04 16:21:26;;;;;;;;;;;20.80;99.90;;;19.08;81.21;95113.47;10425582;28;2122;-84
2021/07/04 16:26:29;;;;;;;;;;;20.40;99.90;;;18.48;88.72;95112.34;10406273;28;2224;-83
2021/07/04 16:31:32;;;;;;;;;;;19.80;99.90;;;18.13;92.07;95117.41;10417896;28;2048;-84
2021/07/04 16:36:34;;;;;;;;;;;19.40;99.90;;;17.96;93.06;95118.41;10424363;28;2106;-83
2021/07/04 16:41:37;;;;;;;;;;;19.00;99.90;;;17.54;95.44;95096.72;10414467;28;1642;-82
2021/07/04 16:46:40;;;;;;;;;;;18.60;99.90;;;17.31;99.45;95101.72;10415981;28;1464;-83
2021/07/04 16:51:43;;;;;;;;;;;18.40;99.90;;;17.34;100.00;95113.84;10403983;28;1380;-85
2021/07/04 16:56:46;;;;;;;;;;;18.20;99.90;;;17.32;100.00;95124.25;10422455;28;1945;-84
2021/07/04 17:01:49;;;;;;;;;;;18.20;99.90;;;17.23;100.00;95119.66;10437075;28;1549;-84
2021/07/04 17:06:52;;;;;;;;;;;18.10;99.90;;;17.27;100.00;95125.25;10426327;28;1417;-83
2021/07/04 17:11:55;;;;;;;;;;;18.10;99.90;;;17.32;99.42;95171.22;10412716;28;1999;-84
2021/07/04 17:16:58;;;;;;;;;;;18.00;99.90;;;17.41;98.72;95173.88;10417300;28;1577;-84
2021/07/04 17:22:01;;;;;;;;;;;18.10;99.90;;;17.04;100.00;95208.94;10426445;28;2009;-82
2021/07/04 17:27:03;;;;;;;;;;;17.90;99.90;;;16.68;100.00;95229.19;10421297;28;2102;-82
2021/07/04 17:32:06;;;;;;;;;;;17.60;99.90;;;16.47;100.00;95231.81;10426070;28;2307;-84
2021/07/04 17:37:09;;;;;;;;;;;17.40;99.90;;;16.47;100.00;95239.16;10432664;28;1977;-82
2021/07/04 17:42:12;;;;;;;;;;;17.30;99.90;;;16.51;100.00;95266.44;10433524;28;1758;-82
2021/07/04 17:47:15;;;;;;;;;;;17.20;99.90;;;16.43;100.00;95273.50;10438825;28;2030;-82
2021/07/04 17:52:18;;;;;;;;;;;17.10;99.90;;;16.36;100.00;95284.03;10441109;28;1914;-81
2021/07/04 17:57:20;;;;;;;;;;;17.20;99.90;;;16.18;100.00;95281.34;10417038;28;2107;-84
2021/07/04 18:02:23;;;;;;;;;;;17.00;99.90;;;15.91;100.00;95290.63;10424955;28;2111;-81
2021/07/04 18:07:26;;;;;;;;;;;16.80;99.90;;;15.83;100.00;95301.44;10410476;28;2209;-81
2021/07/04 18:12:29;;;;;;;;;;;16.70;99.90;;;15.77;100.00;95314.34;10412407;28;2082;-82
2021/07/04 18:17:32;;;;;;;;;;;16.50;99.90;;;15.88;100.00;95312.13;10415365;28;2052;-82
2021/07/04 18:22:34;;;;;;;;;;;16.60;99.90;;;15.81;100.00;95322.66;10419184;28;2106;-81
2021/07/04 18:27:38;;;;;;;;;;;16.60;99.90;;;16.01;100.00;95330.16;10426201;28;2122;-82
2021/07/04 18:32:40;;;;;;;;;;;16.70;99.90;;;16.07;100.00;95323.44;10417397;28;2095;-81
2021/07/04 18:37:44;;;;;;;;;;;16.70;99.90;;;15.90;100.00;95342.41;10418868;28;2099;-82
2021/07/04 18:42:47;;;;;;;;;;;16.70;99.90;;;15.96;100.00;95341.13;10419604;28;2003;-85
2021/07/04 18:47:51;;;;;;;;;;;16.70;99.90;;;15.85;100.00;95342.59;10433545;28;2126;-83
2021/07/04 18:52:54;;;;;;;;;;;16.70;99.90;;;16.00;100.00;95338.59;10437246;28;1937;-84
2021/07/04 18:57:56;;;;;;;;;;;16.70;99.90;;;16.06;100.00;95335.41;10418794;28;2246;-83
2021/07/04 19:03:04;;;;;;;;;;;16.70;99.90;;;15.96;100.00;95343.84;10427905;28;2000;-84
2021/07/04 19:08:09;;;;;;;;;;;16.80;99.90;;;15.80;100.00;95348.16;10410688;28;2118;-83
2021/07/04 19:13:12;;;;;;;;;;;16.70;99.90;;;15.99;100.00;95337.00;10417371;28;1984;-83
2021/07/04 19:18:15;;;;;;;;;;;16.70;99.90;;;15.94;100.00;95338.75;10405325;28;2330;-81
2021/07/04 19:23:17;;;;;;;;;;;16.70;99.90;;;15.77;100.00;95335.22;10427373;28;2155;-81
2021/07/04 19:28:20;;;;;;;;;;;16.70;99.90;;;15.60;100.00;95344.91;10429674;28;2199;-82
2021/07/04 19:33:23;;;;;;;;;;;16.60;99.90;;;15.54;100.00;95362.41;10434268;28;1902;-84
2021/07/04 19:38:26;;;;;;;;;;;16.40;99.90;;;15.33;100.00;95366.78;10428098;28;1987;-84
2021/07/04 19:43:29;;;;;;;;;;;16.20;99.90;;;15.39;100.00;95362.84;10432259;28;2147;-81
2021/07/04 19:48:31;;;;;;;;;;;16.20;99.90;;;15.56;100.00;95371.00;10432791;28;1941;-82
2021/07/04 19:53:34;;;;;;;;;;;16.30;99.90;;;15.38;100.00;95382.91;10430731;28;2138;-83
2021/07/04 19:58:37;;;;;;;;;;;16.30;99.90;;;15.55;100.00;95384.88;10443665;28;2064;-83
2021/07/04 20:09:01;;;;;;;;;;;16.30;99.90;;;15.57;100.00;95396.19;10432506;28;1618;-84
2021/07/04 20:14:03;;;;;;;;;;;16.30;99.90;;;15.60;100.00;95412.63;10414783;28;1891;-83
2021/07/04 20:19:09;;;;;;;;;;;16.30;99.90;;;15.52;100.00;95416.09;10436484;28;1861;-81
2021/07/04 20:24:13;;;;;;;;;;;16.30;99.90;;;15.44;100.00;95425.00;10450580;28;2032;-82
2021/07/04 20:29:17;;;;;;;;;;;16.30;99.90;;;15.23;100.00;95429.38;10433875;28;1906;-83
2021/07/04 20:34:23;;;;;;;;;;;16.20;99.90;;;15.17;100.00;95425.19;10438037;28;1917;-84
2021/07/04 20:39:29;;;;;;;;;;;16.20;99.90;;;15.04;100.00;95433.09;10418477;28;1883;-84
2021/07/04 20:44:32;;;;;;;;;;;16.10;99.90;;;15.17;100.00;95431.41;10430225;28;1909;-85
2021/07/04 20:49:35;;;;;;;;;;;16.00;99.90;;;15.14;100.00;95426.59;10436740;28;2081;-81
2021/07/04 20:54:39;;;;;;;;;;;16.00;99.90;;;15.13;100.00;95436.63;10445818;28;1993;-84
2021/07/04 20:59:43;;;;;;;;;;;16.10;99.90;;;14.97;100.00;95437.34;10427196;28;1934;-83
2021/07/04 21:04:46;;;;;;;;;;;16.00;99.90;;;14.99;100.00;95435.13;10437636;28;1951;-84
2021/07/04 21:09:50;;;;;;;;;;;15.90;99.90;;;15.04;100.00;95437.69;10430654;28;1970;-83
2021/07/04 21:14:53;;;;;;;;;;;16.00;99.90;;;15.26;100.00;95440.34;10411947;28;2067;-83
2021/07/04 21:19:57;;;;;;;;;;;16.00;99.90;;;15.19;100.00;95436.50;10425122;28;2159;-84
2021/07/04 21:25:00;;;;;;;;;;;16.10;99.90;;;15.25;100.00;95435.25;10435447;28;2044;-82
2021/07/04 21:30:02;;;;;;;;;;;16.20;99.90;;;15.14;100.00;95432.84;10423804;28;2081;-84
2021/07/04 21:35:05;;;;;;;;;;;16.10;99.90;;;15.30;100.00;95437.84;10435777;28;2197;-84
2021/07/04 21:40:08;;;;;;;;;;;16.20;99.90;;;15.30;100.00;95438.63;10416114;28;2325;-82
2021/07/04 21:45:11;;;;;;;;;;;16.20;99.90;;;15.46;100.00;95440.91;10432936;28;2082;-81
2021/07/04 21:50:16;;;;;;;;;;;16.20;99.90;;;15.38;100.00;95443.28;10414820;28;2094;-85
2021/07/04 21:55:19;;;;;;;;;;;16.20;99.90;;;15.33;100.00;95448.84;10419704;28;2075;-81
2021/07/04 22:00:23;;;;;;;;;;;16.20;99.90;;;15.36;100.00;95445.50;10427991;28;2274;-85
2021/07/04 22:05:26;;;;;;;;;;;16.10;99.90;;;15.23;100.00;95445.59;10435772;28;2039;-83
2021/07/04 22:10:28;;;;;;;;;;;16.10;99.90;;;15.38;100.00;95453.31;10423406;28;2090;-84
2021/07/04 22:15:31;;;;;;;;;;;16.20;99.90;;;15.26;100.00;95450.38;10435997;28;2114;-85
2021/07/04 22:20:34;;;;;;;;;;;16.30;99.90;;;15.19;100.00;95452.75;10437895;28;2329;-83
2021/07/04 22:25:37;;;;;;;;;;;16.20;99.90;;;15.41;100.00;95458.94;10448810;28;2129;-84
2021/07/04 22:30:40;;;;;;;;;;;16.20;99.90;;;15.39;100.00;95461.13;10439073;28;2052;-82
2021/07/04 22:35:45;;;;;;;;;;;16.20;99.90;;;15.48;100.00;95469.31;10427280;28;2154;-83
2021/07/04 22:40:48;;;;;;;;;;;16.30;99.90;;;15.45;100.00;95485.38;10440172;28;2262;-83
2021/07/04 22:45:51;;;;;;;;;;;16.30;99.90;;;15.62;100.00;95472.75;10430473;28;2031;-85
2021/07/04 22:50:54;;;;;;;;;;;16.40;99.90;;;15.68;100.00;95474.19;10449569;28;2243;-84
2021/07/04 22:55:57;;;;;;;;;;;16.50;99.90;;;15.57;99.93;95472.84;10419446;28;2005;-83
2021/07/04 23:01:00;;;;;;;;;;;16.50;99.90;;;15.46;100.00;95470.72;10447540;28;2084;-83
2021/07/04 23:06:03;;;;;;;;;;;16.40;99.90;;;15.57;100.00;95477.47;10462789;28;2135;-85
2021/07/04 23:11:05;;;;;;;;;;;16.40;99.90;;;15.48;100.00;95477.44;10449305;28;1842;-85